createdAt,value
2022-11-03T00:00:46.469Z,70.34
2022-11-03T00:01:46.652Z,70.54
2022-11-03T00:02:46.498Z,70.54
2022-11-03T00:03:46.439Z,70.43
2022-11-03T00:04:46.403Z,70.54
2022-11-03T00:05:46.368Z,70.34
2022-11-03T00:06:46.357Z,70.54
2022-11-03T00:07:46.368Z,70.43
2022-11-03T00:08:46.336Z,70.75
2022-11-03T00:09:46.356Z,70.54
2022-11-03T00:10:46.317Z,70.43
2022-11-03T00:11:46.330Z,70.64
2022-11-03T00:12:46.314Z,70.64
2022-11-03T00:13:46.303Z,70.43
2022-11-03T00:14:46.268Z,70.64
2022-11-03T00:15:46.299Z,70.64
2022-11-03T00:16:46.275Z,71.25
2022-11-03T00:17:46.252Z,70.75
2022-11-03T00:18:46.244Z,70.75
2022-11-03T00:19:46.224Z,70.43
2022-11-03T00:20:46.241Z,70.64
2022-11-03T00:21:46.199Z,70.75
2022-11-03T00:22:46.205Z,70.84
2022-11-03T00:23:46.183Z,71.05
2022-11-03T00:24:46.160Z,70.95
2022-11-03T00:25:46.183Z,71.15
2022-11-03T00:26:46.139Z,71.66
2022-11-03T00:27:46.145Z,71.25
2022-11-03T00:28:46.130Z,70.95
2022-11-03T00:29:46.134Z,71.15
2022-11-03T00:30:46.113Z,70.84
2022-11-03T00:31:46.109Z,71.05
2022-11-03T00:32:46.110Z,71.46
2022-11-03T00:33:46.058Z,71.36
2022-11-03T00:34:46.071Z,71.15
2022-11-03T00:35:46.051Z,71.01
2022-11-03T00:36:46.035Z,71.05
2022-11-03T00:37:46.029Z,71.12
2022-11-03T00:38:46.011Z,70.51
2022-11-03T00:39:46.027Z,71.22
2022-11-03T00:40:45.987Z,71.22
2022-11-03T00:41:45.969Z,70.84
2022-11-03T00:42:45.975Z,70.75
2022-11-03T00:43:45.946Z,70.84
2022-11-03T00:44:46.075Z,71.15
2022-11-03T00:45:45.960Z,70.84
2022-11-03T00:46:45.925Z,71.33
2022-11-03T00:47:45.949Z,71.12
2022-11-03T00:48:45.904Z,71.01
2022-11-03T00:49:45.914Z,71.33
2022-11-03T00:50:45.870Z,70.92
2022-11-03T00:51:45.884Z,70.81
2022-11-03T00:52:45.857Z,70.92
2022-11-03T00:53:45.846Z,70.51
2022-11-03T00:54:46.609Z,71.22
2022-11-03T00:55:45.824Z,70.81
2022-11-03T00:56:45.820Z,70.81
2022-11-03T00:57:45.797Z,71.22
2022-11-03T00:58:45.804Z,71.42
2022-11-03T00:59:45.803Z,71.22
2022-11-03T01:00:45.827Z,71.22
2022-11-03T01:01:47.777Z,71.36
2022-11-03T01:02:45.738Z,71.25
2022-11-03T01:03:45.744Z,71.25
2022-11-03T01:04:45.714Z,71.25
2022-11-03T01:05:45.722Z,71.46
2022-11-03T01:06:45.693Z,71.15
2022-11-03T01:07:45.803Z,71.36
2022-11-03T01:08:45.698Z,71.77
2022-11-03T01:09:45.677Z,71.36
2022-11-03T01:10:45.648Z,71.05
2022-11-03T01:11:45.643Z,71.66
2022-11-03T01:12:45.652Z,71.97
2022-11-03T01:13:45.662Z,71.66
2022-11-03T01:14:45.621Z,71.15
2022-11-03T01:15:45.620Z,72.17
2022-11-03T01:16:45.624Z,71.46
2022-11-03T01:17:45.584Z,71.77
2022-11-03T01:18:45.592Z,72.07
2022-11-03T01:19:45.573Z,71.36
2022-11-03T01:20:45.595Z,71.77
2022-11-03T01:21:45.554Z,71.36
2022-11-03T01:22:45.560Z,71.97
2022-11-03T01:23:45.516Z,71.97
2022-11-03T01:24:45.500Z,71.90
2022-11-03T01:25:45.488Z,72.07
2022-11-03T01:26:45.505Z,72.21
2022-11-03T01:27:45.460Z,72.00
2022-11-03T01:28:45.492Z,72.07
2022-11-03T01:29:45.548Z,71.80
2022-11-03T01:30:45.436Z,71.90
2022-11-03T01:31:45.424Z,72.21
2022-11-03T01:32:45.430Z,72.21
2022-11-03T01:33:45.404Z,72.00
2022-11-03T01:34:45.411Z,72.11
2022-11-03T01:35:45.406Z,72.11
2022-11-03T01:36:45.364Z,72.41
2022-11-03T01:37:45.356Z,72.62
2022-11-03T01:38:45.336Z,72.41
2022-11-03T01:39:45.377Z,72.31
2022-11-03T01:40:45.328Z,72.52
2022-11-03T01:41:45.306Z,72.28
2022-11-03T01:42:45.307Z,72.21
2022-11-03T01:43:45.282Z,72.52
2022-11-03T01:44:45.274Z,72.52
2022-11-03T01:45:45.299Z,72.41
2022-11-03T01:46:45.273Z,72.52
2022-11-03T01:47:45.300Z,71.80
2022-11-03T01:48:45.261Z,72.11
2022-11-03T01:49:45.254Z,72.82
2022-11-03T01:50:45.205Z,72.31
2022-11-03T01:51:45.214Z,72.72
2022-11-03T01:52:45.210Z,72.52
2022-11-03T01:53:45.188Z,72.21
2022-11-03T01:54:45.194Z,72.31
2022-11-03T01:55:45.159Z,72.31
2022-11-03T01:56:45.143Z,72.41
2022-11-03T01:57:45.155Z,72.00
2022-11-03T01:58:45.154Z,72.21
2022-11-03T01:59:45.112Z,72.00
2022-11-03T02:00:45.163Z,71.80
2022-11-03T02:01:45.234Z,71.90
2022-11-03T02:02:45.083Z,72.72
2022-11-03T02:03:45.079Z,72.62
2022-11-03T02:04:45.067Z,72.62
2022-11-03T02:05:45.049Z,72.41
2022-11-03T02:06:45.034Z,73.13
2022-11-03T02:07:45.018Z,72.31
2022-11-03T02:08:45.042Z,72.72
2022-11-03T02:09:45.015Z,72.72
2022-11-03T02:10:45.016Z,72.72
2022-11-03T02:11:45.030Z,72.52
2022-11-03T02:12:44.969Z,73.03
2022-11-03T02:13:44.970Z,72.92
2022-11-03T02:14:44.950Z,72.72
2022-11-03T02:15:44.955Z,72.96
2022-11-03T02:16:47.857Z,72.65
2022-11-03T02:17:44.924Z,72.24
2022-11-03T02:18:44.896Z,72.24
2022-11-03T02:19:44.914Z,72.45
2022-11-03T02:20:44.917Z,72.65
2022-11-03T02:21:44.893Z,72.65
2022-11-03T02:22:44.860Z,72.62
2022-11-03T02:23:44.851Z,72.75
2022-11-03T02:24:48.558Z,73.06
2022-11-03T02:25:44.827Z,72.75
2022-11-03T02:26:44.823Z,72.86
2022-11-03T02:27:44.839Z,73.06
2022-11-03T02:28:44.857Z,73.16
2022-11-03T02:29:44.778Z,73.36
2022-11-03T02:30:44.801Z,72.92
2022-11-03T02:31:44.789Z,72.62
2022-11-03T02:32:44.751Z,72.65
2022-11-03T02:33:44.759Z,72.55
2022-11-03T02:34:44.733Z,72.65
2022-11-03T02:35:44.725Z,72.75
2022-11-03T02:36:44.736Z,72.41
2022-11-03T02:37:44.713Z,72.55
2022-11-03T02:38:44.695Z,71.94
2022-11-03T02:39:44.672Z,72.65
2022-11-03T02:40:44.680Z,73.16
2022-11-03T02:41:44.646Z,71.94
2022-11-03T02:42:44.629Z,72.65
2022-11-03T02:43:44.637Z,72.45
2022-11-03T02:44:44.665Z,72.75
2022-11-03T02:45:44.655Z,72.04
2022-11-03T02:46:44.585Z,72.55
2022-11-03T02:47:44.582Z,72.21
2022-11-03T02:48:44.575Z,71.94
2022-11-03T02:49:44.600Z,72.52
2022-11-03T02:50:44.571Z,72.31
2022-11-03T02:51:44.552Z,72.21
2022-11-03T02:52:44.543Z,72.62
2022-11-03T02:53:44.520Z,72.31
2022-11-03T02:54:44.499Z,72.21
2022-11-03T02:55:44.502Z,72.52
2022-11-03T02:56:44.520Z,72.82
2022-11-03T02:57:44.464Z,72.21
2022-11-03T02:58:44.479Z,72.31
2022-11-03T02:59:44.466Z,72.31
2022-11-03T03:00:44.473Z,72.62
2022-11-03T03:01:44.691Z,72.31
2022-11-03T03:02:44.450Z,72.31
2022-11-03T03:03:44.400Z,72.72
2022-11-03T03:04:44.391Z,72.72
2022-11-03T03:05:44.380Z,72.62
2022-11-03T03:06:44.419Z,72.31
2022-11-03T03:07:44.375Z,72.21
2022-11-03T03:08:44.360Z,72.31
2022-11-03T03:09:44.335Z,72.11
2022-11-03T03:10:44.330Z,72.11
2022-11-03T03:11:44.311Z,72.11
2022-11-03T03:12:44.316Z,72.00
2022-11-03T03:13:44.318Z,71.90
2022-11-03T03:14:44.281Z,72.00
2022-11-03T03:15:44.270Z,71.80
2022-11-03T03:16:44.274Z,72.11
2022-11-03T03:17:44.271Z,72.62
2022-11-03T03:18:44.247Z,72.00
2022-11-03T03:19:44.247Z,72.11
2022-11-03T03:20:44.210Z,72.11
2022-11-03T03:21:44.269Z,72.45
2022-11-03T03:22:44.209Z,72.52
2022-11-03T03:23:44.189Z,71.94
2022-11-03T03:24:44.204Z,72.55
2022-11-03T03:25:44.159Z,72.75
2022-11-03T03:26:44.144Z,72.24
2022-11-03T03:27:44.147Z,72.55
2022-11-03T03:28:44.157Z,72.75
2022-11-03T03:29:44.139Z,72.55
2022-11-03T03:30:44.154Z,72.45
2022-11-03T03:31:44.095Z,72.45
2022-11-03T03:32:44.104Z,72.75
2022-11-03T03:33:47.532Z,72.65
2022-11-03T03:34:44.061Z,72.75
2022-11-03T03:35:44.056Z,72.75
2022-11-03T03:36:44.076Z,72.75
2022-11-03T03:37:44.063Z,72.55
2022-11-03T03:38:44.016Z,72.75
2022-11-03T03:39:44.014Z,72.65
2022-11-03T03:40:44.028Z,72.55
2022-11-03T03:41:43.993Z,72.34
2022-11-03T03:42:44.005Z,72.86
2022-11-03T03:43:43.967Z,72.34
2022-11-03T03:44:43.948Z,72.96
2022-11-03T03:45:43.961Z,72.75
2022-11-03T03:46:43.925Z,73.06
2022-11-03T03:47:43.934Z,72.45
2022-11-03T03:48:43.903Z,72.34
2022-11-03T03:49:43.902Z,72.86
2022-11-03T03:50:43.887Z,73.06
2022-11-03T03:51:43.871Z,72.04
2022-11-03T03:52:43.871Z,72.24
2022-11-03T03:53:43.870Z,73.16
2022-11-03T03:54:43.836Z,73.06
2022-11-03T03:55:43.824Z,73.06
2022-11-03T03:56:43.838Z,73.06
2022-11-03T03:57:43.830Z,73.06
2022-11-03T03:58:43.808Z,71.94
2022-11-03T03:59:43.792Z,72.75
2022-11-03T04:00:43.800Z,72.65
2022-11-03T04:01:43.891Z,72.75
2022-11-03T04:02:43.758Z,72.45
2022-11-03T04:03:43.737Z,72.55
2022-11-03T04:04:43.753Z,72.14
2022-11-03T04:05:43.720Z,71.83
2022-11-03T04:06:43.724Z,72.14
2022-11-03T04:07:43.933Z,72.34
2022-11-03T04:08:43.704Z,72.65
2022-11-03T04:09:43.673Z,72.14
2022-11-03T04:10:43.689Z,72.00
2022-11-03T04:11:43.692Z,72.45
2022-11-03T04:12:43.672Z,72.14
2022-11-03T04:13:43.635Z,72.34
2022-11-03T04:14:43.643Z,72.21
2022-11-03T04:15:43.612Z,71.94
2022-11-03T04:16:43.623Z,71.80
2022-11-03T04:17:43.658Z,71.59
2022-11-03T04:18:43.572Z,71.70
2022-11-03T04:19:43.571Z,71.90
2022-11-03T04:20:43.554Z,71.70
2022-11-03T04:21:43.547Z,71.29
2022-11-03T04:22:43.562Z,71.59
2022-11-03T04:23:43.520Z,71.80
2022-11-03T04:24:43.506Z,71.70
2022-11-03T04:25:43.514Z,71.39
2022-11-03T04:26:43.506Z,71.39
2022-11-03T04:27:43.491Z,71.39
2022-11-03T04:28:43.496Z,71.94
2022-11-03T04:29:43.473Z,71.73
2022-11-03T04:30:43.447Z,71.53
2022-11-03T04:31:43.450Z,71.62
2022-11-03T04:32:43.427Z,71.53
2022-11-03T04:33:43.451Z,71.59
2022-11-03T04:34:43.452Z,71.12
2022-11-03T04:35:43.385Z,71.73
2022-11-03T04:36:43.372Z,71.32
2022-11-03T04:37:47.465Z,71.83
2022-11-03T04:38:43.389Z,71.80
2022-11-03T04:40:43.329Z,71.83
2022-11-03T04:41:43.319Z,71.77
2022-11-03T04:42:43.308Z,71.66
2022-11-03T04:43:43.340Z,71.86
2022-11-03T04:44:43.307Z,72.17
2022-11-03T04:45:43.300Z,72.38
2022-11-03T04:46:43.292Z,72.28
2022-11-03T04:47:43.260Z,72.38
2022-11-03T04:48:43.268Z,72.28
2022-11-03T04:49:43.240Z,72.45
2022-11-03T04:50:46.755Z,72.38
2022-11-03T04:51:43.207Z,72.69
2022-11-03T04:52:43.210Z,72.69
2022-11-03T04:53:43.210Z,72.07
2022-11-03T04:54:43.182Z,72.48
2022-11-03T04:55:43.177Z,72.78
2022-11-03T04:56:43.207Z,72.17
2022-11-03T04:57:43.141Z,72.78
2022-11-03T04:58:43.132Z,72.52
2022-11-03T04:59:43.128Z,72.89
2022-11-03T05:00:43.222Z,72.38
2022-11-03T05:01:43.402Z,71.90
2022-11-03T05:02:43.112Z,72.78
2022-11-03T05:03:43.077Z,72.78
2022-11-03T05:04:43.068Z,72.82
2022-11-03T05:05:43.058Z,72.69
2022-11-03T05:06:43.075Z,72.89
2022-11-03T05:07:43.086Z,72.41
2022-11-03T05:08:43.031Z,72.20
2022-11-03T05:09:43.154Z,72.92
2022-11-03T05:10:43.000Z,72.11
2022-11-03T05:11:42.990Z,73.13
2022-11-03T05:12:42.980Z,72.55
2022-11-03T05:13:43.068Z,72.31
2022-11-03T05:14:42.977Z,72.86
2022-11-03T05:15:42.945Z,73.16
2022-11-03T05:16:42.960Z,73.36
2022-11-03T05:17:42.930Z,73.33
2022-11-03T05:18:42.910Z,73.03
2022-11-03T05:19:42.921Z,73.13
2022-11-03T05:20:42.909Z,73.33
2022-11-03T05:21:42.913Z,73.36
2022-11-03T05:22:42.876Z,72.96
2022-11-03T05:23:42.863Z,73.36
2022-11-03T05:24:42.872Z,72.82
2022-11-03T05:25:42.834Z,73.27
2022-11-03T05:26:42.826Z,73.16
2022-11-03T05:27:42.820Z,73.06
2022-11-03T05:28:42.839Z,73.27
2022-11-03T05:29:42.805Z,73.36
2022-11-03T05:30:42.780Z,73.03
2022-11-03T05:31:42.778Z,72.61
2022-11-03T05:32:42.776Z,73.16
2022-11-03T05:33:42.785Z,73.36
2022-11-03T05:34:42.751Z,73.06
2022-11-03T05:35:42.749Z,73.13
2022-11-03T05:36:42.717Z,72.86
2022-11-03T05:37:42.721Z,73.16
2022-11-03T05:38:42.716Z,72.31
2022-11-03T05:39:42.682Z,72.34
2022-11-03T05:40:42.705Z,72.61
2022-11-03T05:41:42.662Z,71.90
2022-11-03T05:42:42.663Z,72.75
2022-11-03T05:43:42.667Z,73.13
2022-11-03T05:44:42.624Z,72.61
2022-11-03T05:45:42.625Z,72.82
2022-11-03T05:46:42.619Z,72.82
2022-11-03T05:47:42.618Z,72.72
2022-11-03T05:48:42.604Z,72.65
2022-11-03T05:49:42.609Z,72.82
2022-11-03T05:50:42.572Z,72.31
2022-11-03T05:51:42.548Z,72.00
2022-11-03T05:52:42.542Z,72.41
2022-11-03T05:53:42.546Z,72.00
2022-11-03T05:54:42.517Z,72.00
2022-11-03T05:55:42.531Z,72.52
2022-11-03T05:56:42.493Z,72.61
2022-11-03T05:57:42.484Z,72.41
2022-11-03T05:58:42.492Z,72.41
2022-11-03T05:59:42.462Z,72.31
2022-11-03T06:00:48.196Z,72.61
2022-11-03T06:01:42.578Z,72.00
2022-11-03T06:02:42.474Z,72.31
2022-11-03T06:03:42.428Z,72.41
2022-11-03T06:04:42.432Z,72.11
2022-11-03T06:05:42.397Z,72.11
2022-11-03T06:06:42.390Z,71.69
2022-11-03T06:07:42.406Z,71.83
2022-11-03T06:08:44.992Z,72.00
2022-11-03T06:09:42.350Z,72.11
2022-11-03T06:10:42.340Z,72.52
2022-11-03T06:11:42.359Z,72.20
2022-11-03T06:12:42.339Z,72.20
2022-11-03T06:13:42.312Z,72.20
2022-11-03T06:14:42.305Z,72.31
2022-11-03T06:15:42.284Z,72.20
2022-11-03T06:16:42.277Z,72.20
2022-11-03T06:17:42.286Z,72.41
2022-11-03T06:18:42.262Z,72.07
2022-11-03T06:19:42.247Z,71.69
2022-11-03T06:20:42.256Z,71.90
2022-11-03T06:21:44.706Z,71.28
2022-11-03T06:22:42.233Z,71.56
2022-11-03T06:23:42.212Z,71.86
2022-11-03T06:24:42.199Z,71.66
2022-11-03T06:25:42.176Z,71.15
2022-11-03T06:26:42.179Z,71.15
2022-11-03T06:27:42.199Z,71.66
2022-11-03T06:28:42.144Z,71.25
2022-11-03T06:29:42.215Z,71.25
2022-11-03T06:31:42.124Z,70.94
2022-11-03T06:32:42.119Z,71.04
2022-11-03T06:33:42.101Z,70.94
2022-11-03T06:34:42.112Z,71.25
2022-11-03T06:35:42.081Z,70.84
2022-11-03T06:36:42.073Z,70.71
2022-11-03T06:37:42.081Z,70.64
2022-11-03T06:38:42.034Z,70.64
2022-11-03T06:39:42.040Z,70.81
2022-11-03T06:40:42.016Z,70.53
2022-11-03T06:41:42.019Z,70.40
2022-11-03T06:42:41.995Z,70.40
2022-11-03T06:43:41.997Z,70.50
2022-11-03T06:44:41.971Z,70.50
2022-11-03T06:45:41.977Z,70.40
2022-11-03T06:46:41.993Z,70.20
2022-11-03T06:47:41.952Z,70.50
2022-11-03T06:48:41.959Z,70.64
2022-11-03T06:49:41.914Z,70.50
2022-11-03T06:50:44.846Z,70.61
2022-11-03T06:51:41.894Z,70.40
2022-11-03T06:52:42.011Z,70.20
2022-11-03T06:53:41.883Z,70.29
2022-11-03T06:54:41.886Z,70.29
2022-11-03T06:55:41.848Z,70.29
2022-11-03T06:56:41.841Z,70.50
2022-11-03T06:57:41.830Z,70.20
2022-11-03T06:58:41.851Z,70.20
2022-11-03T06:59:41.832Z,70.29
2022-11-03T07:00:45.890Z,70.20
2022-11-03T07:01:41.924Z,69.99
2022-11-03T07:02:41.919Z,69.99
2022-11-03T07:03:41.794Z,69.79
2022-11-03T07:04:41.768Z,70.06
2022-11-03T07:05:41.830Z,70.20
2022-11-03T07:06:41.760Z,69.85
2022-11-03T07:07:41.718Z,70.06
2022-11-03T07:08:41.749Z,69.85
2022-11-03T07:09:41.710Z,69.85
2022-11-03T07:10:41.695Z,69.65
2022-11-03T07:11:41.699Z,69.85
2022-11-03T07:12:41.665Z,69.85
2022-11-03T07:13:41.676Z,69.75
2022-11-03T07:14:41.656Z,69.85
2022-11-03T07:15:41.631Z,69.55
2022-11-03T07:16:41.682Z,69.75
2022-11-03T07:17:41.649Z,69.65
2022-11-03T07:18:41.601Z,69.72
2022-11-03T07:19:41.610Z,69.52
2022-11-03T07:20:41.584Z,69.62
2022-11-03T07:21:41.604Z,69.52
2022-11-03T07:22:41.572Z,69.52
2022-11-03T07:23:44.683Z,69.72
2022-11-03T07:24:41.588Z,69.62
2022-11-03T07:25:41.573Z,69.62
2022-11-03T07:26:41.535Z,69.21
2022-11-03T07:27:41.513Z,69.42
2022-11-03T07:28:41.560Z,69.42
2022-11-03T07:29:41.534Z,69.42
2022-11-03T07:30:41.473Z,69.52
2022-11-03T07:31:41.483Z,69.38
2022-11-03T07:32:41.463Z,69.28
2022-11-03T07:33:41.450Z,69.11
2022-11-03T07:34:41.456Z,69.38
2022-11-03T07:36:13.096Z,69.18
2022-11-03T07:36:42.419Z,69.28
2022-11-03T07:37:41.401Z,69.38
2022-11-03T07:38:41.381Z,69.38
2022-11-03T07:39:41.392Z,69.18
2022-11-03T07:40:41.419Z,69.38
2022-11-03T07:41:41.369Z,68.97
2022-11-03T07:42:41.343Z,68.87
2022-11-03T07:43:41.350Z,69.07
2022-11-03T07:44:41.357Z,68.77
2022-11-03T07:45:41.327Z,68.87
2022-11-03T07:46:41.295Z,68.87
2022-11-03T07:47:41.282Z,68.84
2022-11-03T07:48:41.273Z,68.84
2022-11-03T07:49:41.284Z,68.74
2022-11-03T07:50:41.257Z,68.63
2022-11-03T07:51:41.279Z,68.74
2022-11-03T07:52:41.275Z,68.63
2022-11-03T07:53:41.215Z,68.74
2022-11-03T07:54:41.212Z,68.50
2022-11-03T07:55:41.242Z,68.43
2022-11-03T07:56:41.237Z,68.23
2022-11-03T07:57:41.207Z,67.79
2022-11-03T07:58:41.201Z,67.99
2022-11-03T07:59:41.169Z,67.51
2022-11-03T08:00:41.152Z,67.58
2022-11-03T08:01:41.275Z,67.48
2022-11-03T08:02:41.217Z,67.48
2022-11-03T08:03:41.126Z,67.48
2022-11-03T08:04:41.098Z,67.38
2022-11-03T08:05:41.095Z,67.58
2022-11-03T08:06:41.099Z,67.14
2022-11-03T08:07:41.068Z,66.83
2022-11-03T08:08:41.061Z,67.14
2022-11-03T08:09:41.073Z,66.63
2022-11-03T08:10:41.034Z,66.74
2022-11-03T08:11:41.053Z,66.83
2022-11-03T08:12:41.051Z,66.53
2022-11-03T08:13:41.006Z,66.70
2022-11-03T08:14:41.011Z,66.50
2022-11-03T08:15:40.977Z,66.30
2022-11-03T08:16:40.966Z,67.01
2022-11-03T08:17:41.231Z,66.70
2022-11-03T08:18:40.964Z,66.91
2022-11-03T08:19:40.946Z,66.09
2022-11-03T08:20:40.947Z,65.78
2022-11-03T08:21:40.915Z,66.09
2022-11-03T08:22:46.069Z,66.30
2022-11-03T08:23:44.626Z,65.78
2022-11-03T08:24:40.918Z,66.27
2022-11-03T08:25:40.931Z,65.25
2022-11-03T08:26:40.863Z,65.55
2022-11-03T08:27:40.856Z,65.42
2022-11-03T08:28:40.857Z,65.52
2022-11-03T08:29:40.833Z,65.83
2022-11-03T08:30:40.845Z,64.90
2022-11-03T08:31:40.827Z,65.31
2022-11-03T08:32:40.835Z,65.01
2022-11-03T08:33:40.912Z,64.60
2022-11-03T08:34:40.768Z,64.60
2022-11-03T08:35:40.783Z,64.78
2022-11-03T08:36:40.764Z,65.01
2022-11-03T08:37:40.749Z,64.90
2022-11-03T08:38:40.751Z,64.90
2022-11-03T08:39:40.760Z,65.19
2022-11-03T08:40:40.721Z,64.90
2022-11-03T08:41:40.699Z,64.78
2022-11-03T08:42:40.707Z,64.81
2022-11-03T08:43:40.694Z,64.90
2022-11-03T08:44:40.719Z,64.87
2022-11-03T08:45:40.656Z,64.87
2022-11-03T08:46:40.646Z,64.17
2022-11-03T08:47:40.643Z,64.47
2022-11-03T08:48:40.656Z,64.64
2022-11-03T08:49:40.605Z,64.75
2022-11-03T08:50:40.616Z,64.54
2022-11-03T08:51:44.370Z,64.23
2022-11-03T08:52:40.569Z,64.23
2022-11-03T08:53:40.587Z,64.00
2022-11-03T08:54:40.608Z,64.11
2022-11-03T08:55:40.543Z,64.11
2022-11-03T08:56:40.639Z,63.80
2022-11-03T08:57:40.521Z,63.90
2022-11-03T08:58:40.508Z,63.39
2022-11-03T08:59:40.513Z,63.39
2022-11-03T09:00:41.298Z,62.88
2022-11-03T09:01:40.556Z,62.98
2022-11-03T09:02:40.548Z,62.68
2022-11-03T09:03:40.519Z,62.75
2022-11-03T09:04:40.452Z,62.96
2022-11-03T09:05:40.441Z,62.75
2022-11-03T09:06:40.427Z,62.82
2022-11-03T09:10:42.634Z,62.35
2022-11-03T09:11:40.387Z,61.94
2022-11-03T09:12:40.363Z,62.11
2022-11-03T09:13:40.359Z,62.41
2022-11-03T09:14:40.364Z,62.41
2022-11-03T09:15:40.327Z,62.41
2022-11-03T09:16:40.364Z,62.62
2022-11-03T09:17:43.190Z,62.11
2022-11-03T09:18:40.307Z,62.32
2022-11-03T09:19:40.295Z,61.91
2022-11-03T09:20:40.270Z,61.71
2022-11-03T09:21:40.256Z,61.81
2022-11-03T09:22:40.244Z,62.29
2022-11-03T09:23:40.243Z,61.81
2022-11-03T09:24:40.236Z,61.60
2022-11-03T09:25:40.330Z,61.81
2022-11-03T09:26:40.197Z,61.40
2022-11-03T09:27:40.184Z,62.01
2022-11-03T09:28:40.173Z,61.71
2022-11-03T09:30:06.702Z,61.71
2022-11-03T09:30:40.230Z,61.71
2022-11-03T09:31:40.146Z,62.01
2022-11-03T09:32:40.155Z,61.40
2022-11-03T09:33:40.127Z,61.60
2022-11-03T09:34:40.126Z,61.17
2022-11-03T09:35:40.107Z,61.57
2022-11-03T09:36:40.104Z,60.86
2022-11-03T09:37:40.119Z,61.27
2022-11-03T09:38:40.090Z,61.27
2022-11-03T09:39:40.120Z,61.37
2022-11-03T09:40:40.128Z,61.17
2022-11-03T09:41:57.932Z,61.47
2022-11-03T09:42:41.033Z,60.76
2022-11-03T09:43:40.013Z,60.56
2022-11-03T09:44:40.128Z,61.07
2022-11-03T09:45:40.021Z,61.37
2022-11-03T09:46:39.975Z,60.76
2022-11-03T09:47:39.970Z,60.74
2022-11-03T09:48:39.986Z,60.33
2022-11-03T09:49:39.946Z,60.53
2022-11-03T09:50:40.000Z,60.53
2022-11-03T09:51:39.952Z,60.53
2022-11-03T09:52:39.915Z,60.20
2022-11-03T09:53:39.905Z,60.13
2022-11-03T09:54:39.955Z,60.71
2022-11-03T09:55:39.904Z,60.10
2022-11-03T09:56:39.945Z,60.20
2022-11-03T09:57:39.879Z,59.89
2022-11-03T09:58:39.870Z,60.20
2022-11-03T09:59:39.843Z,60.40
2022-11-03T10:00:39.898Z,59.99
2022-11-03T10:01:40.061Z,59.39
2022-11-03T10:02:39.801Z,59.48
2022-11-03T10:03:39.797Z,58.98
2022-11-03T10:04:39.811Z,59.08
2022-11-03T10:05:39.781Z,59.89
2022-11-03T10:06:39.757Z,60.07
2022-11-03T10:07:39.753Z,59.77
2022-11-03T10:08:39.802Z,59.48
2022-11-03T10:09:39.747Z,60.30
2022-11-03T10:10:39.840Z,59.08
2022-11-03T10:11:39.716Z,58.98
2022-11-03T10:12:39.694Z,59.66
2022-11-03T10:13:39.744Z,59.28
2022-11-03T10:14:39.675Z,59.26
2022-11-03T10:15:39.725Z,59.12
2022-11-03T10:16:39.650Z,59.16
2022-11-03T10:17:39.637Z,59.05
2022-11-03T10:18:39.636Z,59.46
2022-11-03T10:19:39.624Z,59.53
2022-11-03T10:20:39.683Z,59.53
2022-11-03T10:21:39.706Z,59.26
2022-11-03T10:22:41.116Z,59.33
2022-11-03T10:23:39.570Z,59.26
2022-11-03T10:24:40.663Z,59.53
2022-11-03T10:25:40.131Z,59.43
2022-11-03T10:26:39.565Z,58.92
2022-11-03T10:27:39.529Z,59.23
2022-11-03T10:28:39.528Z,58.72
2022-11-03T10:29:40.532Z,58.22
2022-11-03T10:30:58.116Z,58.31
2022-11-03T10:31:40.519Z,58.62
2022-11-03T10:32:39.485Z,58.31
2022-11-03T10:33:39.470Z,58.18
2022-11-03T10:34:39.486Z,58.49
2022-11-03T10:35:39.444Z,57.48
2022-11-03T10:36:39.490Z,56.77
2022-11-03T10:37:39.451Z,56.90
2022-11-03T10:38:39.406Z,57.50
2022-11-03T10:39:39.527Z,57.58
2022-11-03T10:40:47.730Z,57.48
2022-11-03T10:41:40.383Z,56.87
2022-11-03T10:42:39.363Z,56.26
2022-11-03T10:43:39.368Z,56.54
2022-11-03T10:44:39.357Z,56.34
2022-11-03T10:45:39.372Z,56.95
2022-11-03T10:46:54.772Z,57.15
2022-11-03T10:47:40.309Z,57.24
2022-11-03T10:48:39.298Z,56.01
2022-11-03T10:49:43.482Z,56.23
2022-11-03T10:50:39.284Z,56.44
2022-11-03T10:51:39.286Z,56.44
2022-11-03T10:52:39.281Z,56.21
2022-11-03T10:53:39.252Z,56.64
2022-11-03T10:54:39.274Z,56.10
2022-11-03T10:56:40.068Z,56.01
2022-11-03T10:57:39.216Z,56.21
2022-11-03T10:58:39.199Z,56.21
2022-11-03T10:59:39.208Z,55.80
2022-11-03T11:00:39.257Z,56.01
2022-11-03T11:01:39.291Z,55.60
2022-11-03T11:02:39.185Z,55.80
2022-11-03T11:03:39.131Z,55.90
2022-11-03T11:04:39.169Z,55.70
2022-11-03T11:05:39.173Z,55.47
2022-11-03T11:06:39.109Z,56.89
2022-11-03T11:07:39.165Z,56.28
2022-11-03T11:08:39.186Z,55.47
2022-11-03T11:09:39.066Z,55.27
2022-11-03T11:10:39.098Z,54.84
2022-11-03T11:11:39.051Z,54.86
2022-11-03T11:12:39.051Z,55.24
2022-11-03T11:13:39.022Z,54.86
2022-11-03T11:14:39.018Z,54.94
2022-11-03T11:15:39.129Z,55.15
2022-11-03T11:16:38.997Z,55.02
2022-11-03T11:17:38.990Z,55.22
2022-11-03T11:18:39.066Z,54.21
2022-11-03T11:19:38.970Z,54.53
2022-11-03T11:20:38.971Z,54.71
2022-11-03T11:21:38.971Z,54.61
2022-11-03T11:22:38.975Z,54.71
2022-11-03T11:23:38.982Z,54.82
2022-11-03T11:24:38.942Z,54.31
2022-11-03T11:25:38.897Z,54.00
2022-11-03T11:26:38.916Z,54.11
2022-11-03T11:27:38.949Z,54.41
2022-11-03T11:28:38.857Z,54.11
2022-11-03T11:29:38.864Z,53.70
2022-11-03T11:30:38.870Z,54.41
2022-11-03T11:31:38.842Z,54.28
2022-11-03T11:32:38.826Z,54.08
2022-11-03T11:33:38.800Z,55.09
2022-11-03T11:34:38.805Z,54.11
2022-11-03T11:35:38.796Z,54.28
2022-11-03T11:36:38.778Z,53.80
2022-11-03T11:37:38.762Z,54.18
2022-11-03T11:38:38.768Z,54.28
2022-11-03T11:39:38.735Z,54.28
2022-11-03T11:40:38.760Z,54.49
2022-11-03T11:41:38.756Z,53.78
2022-11-03T11:42:38.916Z,53.27
2022-11-03T11:43:38.709Z,53.98
2022-11-03T11:44:38.678Z,53.58
2022-11-03T11:45:38.671Z,53.75
2022-11-03T11:46:38.681Z,52.84
2022-11-03T11:47:39.048Z,52.84
2022-11-03T11:48:38.641Z,53.25
2022-11-03T11:49:38.636Z,52.94
2022-11-03T11:50:38.647Z,52.84
2022-11-03T11:51:38.601Z,54.05
2022-11-03T11:52:38.612Z,53.12
2022-11-03T11:53:38.579Z,53.22
2022-11-03T11:54:38.579Z,52.41
2022-11-03T11:55:38.595Z,53.12
2022-11-03T11:56:38.561Z,53.32
2022-11-03T11:57:38.542Z,52.82
2022-11-03T11:58:38.530Z,52.21
2022-11-03T11:59:38.546Z,52.03
2022-11-03T12:00:38.610Z,52.21
2022-11-03T12:01:38.529Z,52.23
2022-11-03T12:02:38.515Z,52.31
2022-11-03T12:03:38.668Z,52.92
2022-11-03T12:04:38.474Z,52.72
2022-11-03T12:05:38.446Z,52.82
2022-11-03T12:06:38.539Z,52.72
2022-11-03T12:07:38.425Z,52.72
2022-11-03T12:08:38.430Z,52.19
2022-11-03T12:09:38.430Z,52.61
2022-11-03T12:10:38.390Z,52.41
2022-11-03T12:11:38.399Z,52.61
2022-11-03T12:12:38.389Z,52.72
2022-11-03T12:13:38.363Z,52.29
2022-11-03T12:14:38.411Z,51.71
2022-11-03T12:15:38.338Z,51.71
2022-11-03T12:16:38.330Z,51.20
2022-11-03T12:17:38.326Z,51.10
2022-11-03T12:18:41.610Z,51.00
2022-11-03T12:19:38.297Z,51.81
2022-11-03T12:20:38.297Z,51.61
2022-11-03T12:21:38.304Z,51.50
2022-11-03T12:22:38.262Z,51.50
2022-11-03T12:23:38.267Z,51.91
2022-11-03T12:24:38.256Z,51.58
2022-11-03T12:25:38.228Z,50.80
2022-11-03T12:26:38.238Z,51.61
2022-11-03T12:27:38.223Z,50.98
2022-11-03T12:28:38.214Z,51.00
2022-11-03T12:29:38.202Z,51.98
2022-11-03T12:30:39.986Z,51.58
2022-11-03T12:31:38.201Z,51.48
2022-11-03T12:32:38.179Z,51.07
2022-11-03T12:33:38.165Z,51.78
2022-11-03T12:34:38.137Z,51.68
2022-11-03T12:35:38.141Z,52.09
2022-11-03T12:36:38.106Z,50.87
2022-11-03T12:37:38.095Z,51.98
2022-11-03T12:38:38.114Z,51.89
2022-11-03T12:39:38.086Z,50.95
2022-11-03T12:40:38.064Z,51.38
2022-11-03T12:41:38.064Z,50.87
2022-11-03T12:42:38.043Z,51.28
2022-11-03T12:43:38.053Z,51.89
2022-11-03T12:44:42.786Z,52.06
2022-11-03T12:45:39.024Z,51.68
2022-11-03T12:46:38.016Z,51.78
2022-11-03T12:47:38.015Z,51.96
2022-11-03T12:48:37.977Z,52.39
2022-11-03T12:49:37.974Z,52.59
2022-11-03T12:50:37.986Z,52.59
2022-11-03T12:51:37.963Z,52.49
2022-11-03T12:52:37.955Z,52.49
2022-11-03T12:53:38.065Z,52.61
2022-11-03T12:54:37.913Z,53.09
2022-11-03T12:55:39.375Z,53.00
2022-11-03T12:56:37.891Z,52.49
2022-11-03T12:57:37.984Z,53.20
2022-11-03T12:58:37.886Z,53.00